Aérodrome :
LOGIN :

S'inscrire | Disclaimer

   EN    FR    IT 

 










Légende :    VFR   VFR Marginal   IFR   IFR Intensif   IFR Très Intensif
Visi : 
Plafond : 
>= 8 km
>= 3000ft
5 à 8 km
1000 à 3000 ft
1500m à 5 km
500 à 1000 ft
800 à 1500m
200 à 500 ft
< 800m
< 200 ft
Symboles :   Orages  Brouillard  Fortes neiges  Fortes précipitations  Vent > 20 kt
SIGMETs :   Divers  Orages  Givrage  Turbulence  Onde Orograph.  Cendres Volcan.







- Altitude de l'aérodrome : 383 ft
- Code IATA : UDJ


UKLU - Uzhhorod

DERNIER METAR :
  • 181530Z 30001MPS 9999 -SN OVC020 02/M00 Q1015 R10/290339 NOSIG

METARs EXPIRÉS :
  • 181500Z 33003MPS 300V010 9999 -SN OVC020 02/M00 Q1015 R10/290339 NOSIG
  • 181430Z 32004MPS 280V360 9999 -RA OVC020 03/01 Q1014 R10/290339 NOSIG
  • 181400Z 00000MPS 5000 -RA OVC014 03/01 Q1013 R10/290339 NOSIG
  • 181349Z 00000MPS 4400 -RA OVC014 03/01 Q1013 R10/290339 NOSIG
  • 181340Z 00000MPS 2800 -RA OVC014 03/01 Q1013 R10/290339 NOSIG
  • 181324Z 33002MPS 300V360 2700 -RA OVC014 03/01 Q1013 R10/290339 NOSIG
  • 181300Z 31002MPS 9000 -RA OVC014 03/01 Q1013 R10/290339 NOSIG

TAF TAF UKLU
Valide du 18 à 15h jusqu'au 19 à 00h UTC


181415Z 1815/1824 32005MPS 6000 OVC020 TX02/1815Z TNM03/1824Z
TEMPO 1815/1821 36005G10MPS 2000 -SHSN SCT007 SCT015CB
Pas de NOTAMs connus pour ce terrain.



MET'MAP, la Météo Aéronautique d'un coup d'oeil ! - Copyright ORBIFLY Décembre 2007 - Disclaimer

ORBIFLY MET'MAP TEAM :

Programmation & Développement : Alexandra Zaïnal
Conception & Développement : Baudouin d'Aumeries
Co-Programmation & Développement : Marc-Olivier Méhu
Soutien technique & logistique : Manuel Goepfert

Contact : metmap@orbifly.com




SOURCES & CREDITS :

   NOAA